createdAt,value
2018-11-23T00:00:08.913Z,99459.45
2018-11-23T00:05:10.066Z,99452.75
2018-11-23T00:10:11.322Z,99466.00
2018-11-23T00:15:12.339Z,99466.19
2018-11-23T00:20:13.519Z,99459.16
2018-11-23T00:25:14.540Z,99463.76
2018-11-23T00:30:15.611Z,99464.75
2018-11-23T00:35:16.747Z,99464.38
2018-11-23T00:40:17.871Z,99462.39
2018-11-23T00:45:18.906Z,99468.56
2018-11-23T00:50:20.055Z,99467.36
2018-11-23T00:55:21.077Z,99475.75
2018-11-23T01:00:22.221Z,99482.08
2018-11-23T01:05:24.305Z,99467.95
2018-11-23T01:10:25.398Z,99470.70
2018-11-23T01:15:26.569Z,99473.43
2018-11-23T01:20:27.732Z,99478.77
2018-11-23T01:25:28.779Z,99477.77
2018-11-23T01:30:29.948Z,99481.52
2018-11-23T01:35:31.018Z,99482.53
2018-11-23T01:40:32.065Z,99483.38
2018-11-23T01:45:33.297Z,99485.14
2018-11-23T01:50:34.439Z,99479.11
2018-11-23T01:55:35.580Z,99478.95
2018-11-23T02:00:36.658Z,99478.47
2018-11-23T02:05:38.193Z,99476.81
2018-11-23T02:10:39.223Z,99477.56
2018-11-23T02:15:40.318Z,99483.42
2018-11-23T02:20:41.508Z,99476.48
2018-11-23T02:25:42.897Z,99474.25
2018-11-23T02:30:44.083Z,99465.78
2018-11-23T02:35:45.374Z,99458.59
2018-11-23T02:40:46.617Z,99458.37
2018-11-23T02:45:47.875Z,99465.27
2018-11-23T02:50:49.151Z,99464.58
2018-11-23T02:55:50.294Z,99466.61
2018-11-23T03:00:51.553Z,99463.94
2018-11-23T03:05:52.635Z,99469.58
2018-11-23T03:10:53.706Z,99464.33
2018-11-23T03:15:54.832Z,99457.80
2018-11-23T03:20:56.084Z,99452.14
2018-11-23T03:25:57.257Z,99451.62
2018-11-23T03:30:58.444Z,99455.67
2018-11-23T03:35:59.844Z,99449.57
2018-11-23T03:41:00.930Z,99454.52
2018-11-23T03:46:02.008Z,99451.77
2018-11-23T03:51:03.110Z,99451.80
2018-11-23T03:56:04.343Z,99444.39
2018-11-23T04:01:05.420Z,99455.83
2018-11-23T04:06:06.515Z,99455.35
2018-11-23T04:11:07.927Z,99446.99
2018-11-23T04:16:09.063Z,99443.64
2018-11-23T04:21:10.128Z,99452.30
2018-11-23T04:26:11.185Z,99444.31
2018-11-23T04:31:12.231Z,99440.33
2018-11-23T04:36:13.458Z,99439.66
2018-11-23T04:41:14.574Z,99433.62
2018-11-23T04:46:15.740Z,99444.55
2018-11-23T04:51:16.800Z,99440.33
2018-11-23T04:56:17.915Z,99447.03
2018-11-23T05:01:18.958Z,99441.91
2018-11-23T05:06:20.225Z,99445.27
2018-11-23T05:11:21.611Z,99439.02
2018-11-23T05:16:22.746Z,99444.65
2018-11-23T05:21:23.870Z,99440.35
2018-11-23T05:26:24.982Z,99442.09
2018-11-23T05:31:26.193Z,99438.24
2018-11-23T05:36:27.369Z,99431.84
2018-11-23T05:41:28.444Z,99431.73
2018-11-23T05:46:29.503Z,99421.59
2018-11-23T05:51:30.731Z,99434.22
2018-11-23T05:56:31.888Z,99430.30
2018-11-23T06:01:32.984Z,99431.73
2018-11-23T06:06:34.014Z,99438.30
2018-11-23T06:11:35.089Z,99433.23
2018-11-23T06:16:39.514Z,99436.25
2018-11-23T06:21:41.534Z,99437.27
2018-11-23T06:26:42.759Z,99447.45
2018-11-23T06:31:43.806Z,99449.71
2018-11-23T06:36:45.001Z,99446.28
2018-11-23T06:41:46.136Z,99437.16
2018-11-23T06:46:47.875Z,99438.69
2018-11-23T06:51:48.994Z,99445.81
2018-11-23T06:56:50.114Z,99453.55
2018-11-23T07:01:51.566Z,99442.57
2018-11-23T07:06:52.672Z,99445.81
2018-11-23T07:11:53.701Z,99461.47
2018-11-23T07:16:55.210Z,99451.77
2018-11-23T07:21:58.047Z,99455.77
2018-11-23T07:27:01.958Z,99456.34
2018-11-23T07:32:03.014Z,99467.14
2018-11-23T07:37:04.260Z,99464.09
2018-11-23T07:42:05.454Z,99473.13
2018-11-23T07:47:06.557Z,99469.08
2018-11-23T07:52:07.725Z,99455.23
2018-11-23T07:57:08.807Z,99456.62
2018-11-23T08:02:10.293Z,99439.16
2018-11-23T08:07:11.382Z,99440.02
2018-11-23T08:12:12.472Z,99446.56
2018-11-23T08:17:14.143Z,99448.74
2018-11-23T08:22:15.345Z,99445.96
2018-11-23T08:27:16.552Z,99440.95
2018-11-23T08:32:18.163Z,99441.97
2018-11-23T08:37:19.291Z,99446.13
2018-11-23T08:42:27.467Z,99439.72
2018-11-23T08:47:29.528Z,99436.33
2018-11-23T08:52:30.614Z,99442.89
2018-11-23T08:57:31.682Z,99431.95
2018-11-23T09:02:32.798Z,99424.91
2018-11-23T09:07:33.926Z,99418.67
2018-11-23T09:12:35.045Z,99429.30
2018-11-23T09:17:36.128Z,99426.78
2018-11-23T09:22:37.317Z,99423.23
2018-11-23T09:27:38.569Z,99419.38
2018-11-23T09:32:39.867Z,99412.59
2018-11-23T09:37:41.047Z,99414.31
2018-11-23T09:42:42.079Z,99415.62
2018-11-23T09:47:43.306Z,99408.64
2018-11-23T09:52:44.467Z,99410.00
2018-11-23T09:57:45.704Z,99402.05
2018-11-23T10:02:46.760Z,99400.59
2018-11-23T10:07:47.851Z,99392.61
2018-11-23T10:12:48.886Z,99386.09
2018-11-23T10:17:50.089Z,99374.55
2018-11-23T10:22:54.811Z,99364.12
2018-11-23T10:27:55.920Z,99354.38
2018-11-23T10:32:57.026Z,99347.59
2018-11-23T10:37:58.070Z,99340.65
2018-11-23T10:42:59.362Z,99330.00
2018-11-23T10:48:02.157Z,99324.59
2018-11-23T10:53:03.979Z,99312.33
2018-11-23T10:58:05.609Z,99315.41
2018-11-23T11:03:07.570Z,99309.36
2018-11-23T11:08:09.172Z,99305.80
2018-11-23T11:13:10.556Z,99306.88
2018-11-23T11:18:11.879Z,99298.30
2018-11-23T11:23:13.990Z,99293.27
2018-11-23T11:28:15.212Z,99296.73
2018-11-23T11:33:16.349Z,99286.34
2018-11-23T11:38:18.521Z,99273.93
2018-11-23T11:43:20.377Z,99262.56
2018-11-23T11:48:21.447Z,99266.22
2018-11-23T11:53:22.611Z,99247.81
2018-11-23T11:58:23.731Z,99249.55
2018-11-23T12:03:24.920Z,99237.78
2018-11-23T12:08:26.121Z,99224.58
2018-11-23T12:13:27.628Z,99230.05
2018-11-23T12:18:28.885Z,99224.44
2018-11-23T12:23:30.149Z,99221.93
2018-11-23T12:33:59.813Z,99206.35
2018-11-23T12:39:01.029Z,99196.87
2018-11-23T12:44:02.218Z,99185.80
2018-11-23T12:49:03.405Z,99188.05
2018-11-23T12:54:04.747Z,99191.42
2018-11-23T12:59:05.940Z,99177.63
2018-11-23T13:04:07.104Z,99178.69
2018-11-23T13:09:08.362Z,99169.70
2018-11-23T13:14:09.597Z,99158.55
2018-11-23T13:19:11.010Z,99156.31
2018-11-23T13:24:12.301Z,99154.77
2018-11-23T13:29:16.194Z,99140.59
2018-11-23T13:34:14.637Z,99137.69
2018-11-23T13:39:15.874Z,99149.48
2018-11-23T13:44:17.020Z,99140.45
2018-11-23T13:49:18.609Z,99141.61
2018-11-23T13:54:19.959Z,99133.35
2018-11-23T13:59:21.057Z,99137.72
2018-11-23T14:04:22.254Z,99125.02
2018-11-23T14:09:31.634Z,99123.42
2018-11-23T14:14:33.051Z,99113.19
2018-11-23T14:19:34.265Z,99108.91
2018-11-23T14:24:35.406Z,99097.77
2018-11-23T14:29:36.798Z,99103.77
2018-11-23T14:34:38.107Z,99103.59
2018-11-23T14:39:39.297Z,99093.60
2018-11-23T14:44:40.443Z,99101.39
2018-11-23T14:49:41.630Z,99098.52
2018-11-23T14:54:43.290Z,99096.06
2018-11-23T14:59:44.440Z,99084.69
2018-11-23T15:04:45.546Z,99077.48
2018-11-23T15:09:46.697Z,99092.40
2018-11-23T15:14:47.788Z,99093.18
2018-11-23T15:19:48.899Z,99086.64
2018-11-23T15:24:50.037Z,99081.88
2018-11-23T15:29:51.173Z,99077.84
2018-11-23T15:34:52.645Z,99078.45
2018-11-23T15:39:53.855Z,99074.47
2018-11-23T15:44:54.982Z,99069.19
2018-11-23T15:49:56.047Z,99066.23
2018-11-23T15:54:57.193Z,99067.59
2018-11-23T15:59:59.231Z,99071.80
2018-11-23T16:05:00.363Z,99072.45
2018-11-23T16:10:01.510Z,99080.66
2018-11-23T16:15:02.725Z,99067.57
2018-11-23T16:20:03.818Z,99074.04
2018-11-23T16:25:05.030Z,99070.82
2018-11-23T16:30:06.233Z,99082.27
2018-11-23T16:35:07.413Z,99071.78
2018-11-23T16:40:08.589Z,99075.89
2018-11-23T16:45:09.776Z,99060.44
2018-11-23T16:50:10.878Z,99073.53
2018-11-23T16:55:12.066Z,99074.25
2018-11-23T17:00:13.259Z,99067.25
2018-11-23T17:05:14.434Z,99058.66
2018-11-23T17:10:15.783Z,99042.39
2018-11-23T17:15:17.002Z,99032.98
2018-11-23T17:20:18.215Z,99030.73
2018-11-23T17:25:19.388Z,99027.98
2018-11-23T17:30:20.511Z,99033.66
2018-11-23T17:35:21.682Z,99046.03
2018-11-23T17:40:22.880Z,99038.50
2018-11-23T17:45:25.073Z,99034.02
2018-11-23T17:50:26.244Z,99029.48
2018-11-23T17:55:27.396Z,99024.73
2018-11-23T18:00:28.593Z,99016.28
2018-11-23T18:05:29.749Z,99009.95
2018-11-23T18:10:30.959Z,99014.17
2018-11-23T18:15:32.086Z,99008.00
2018-11-23T18:20:34.491Z,99010.06
2018-11-23T18:25:37.611Z,99000.29
2018-11-23T18:30:40.799Z,98986.48
2018-11-23T18:35:42.917Z,98979.55
2018-11-23T18:40:45.490Z,98975.66
2018-11-23T18:45:46.941Z,98960.20
2018-11-23T18:50:48.632Z,98953.22
2018-11-23T18:55:50.561Z,98959.91
2018-11-23T19:00:52.043Z,98945.47
2018-11-23T19:05:53.337Z,98937.91
2018-11-23T19:10:54.636Z,98934.66
2018-11-23T19:15:55.851Z,98938.70
2018-11-23T19:20:57.236Z,98934.00
2018-11-23T19:25:59.393Z,98934.65
2018-11-23T19:31:00.965Z,98943.47
2018-11-23T19:36:02.349Z,98950.45
2018-11-23T19:41:04.117Z,98954.29
2018-11-23T19:46:05.528Z,98951.88
2018-11-23T19:51:08.789Z,98960.91
2018-11-23T19:56:11.116Z,98955.41
2018-11-23T20:01:12.934Z,98943.61
2018-11-23T20:06:15.359Z,98940.21
2018-11-23T20:11:17.790Z,98923.56
2018-11-23T20:16:19.690Z,98921.25
2018-11-23T20:21:21.240Z,98913.98
2018-11-23T20:26:22.904Z,98903.86
2018-11-23T20:31:24.337Z,98892.14
2018-11-23T20:36:25.611Z,98892.12
2018-11-23T20:41:28.051Z,98884.78
2018-11-23T20:46:30.983Z,98883.20
2018-11-23T20:51:33.349Z,98864.91
2018-11-23T20:56:35.180Z,98878.45
2018-11-23T21:01:36.961Z,98861.06
2018-11-23T21:06:38.535Z,98861.64
2018-11-23T21:11:41.200Z,98854.12
2018-11-23T21:16:43.613Z,98842.87
2018-11-23T21:21:47.864Z,98842.22
2018-11-23T21:26:55.135Z,98847.26
2018-11-23T21:32:03.127Z,98837.11
2018-11-23T21:37:14.697Z,98839.59
2018-11-23T21:42:23.360Z,98828.73
2018-11-23T21:47:34.788Z,98830.27
2018-11-23T21:52:56.947Z,98820.91
2018-11-23T21:58:09.474Z,98805.44
2018-11-23T22:03:32.325Z,98805.55
2018-11-23T22:14:08.173Z,98778.94
2018-11-23T22:19:20.774Z,98775.56
2018-11-23T22:24:32.856Z,98776.03
2018-11-23T22:35:16.712Z,98769.59
2018-11-23T22:40:18.240Z,98765.62
2018-11-23T22:45:19.954Z,98768.78
2018-11-23T22:50:22.465Z,98761.05
2018-11-23T22:55:23.939Z,98757.39
2018-11-23T23:00:25.601Z,98747.52
2018-11-23T23:05:27.242Z,98744.64
2018-11-23T23:10:28.891Z,98734.34
2018-11-23T23:15:30.733Z,98715.03
2018-11-23T23:20:32.188Z,98717.60
2018-11-23T23:25:33.912Z,98712.34
2018-11-23T23:30:37.651Z,98700.28
2018-11-23T23:35:39.070Z,98690.09
2018-11-23T23:40:41.708Z,98688.11
2018-11-23T23:45:43.098Z,98684.48
2018-11-23T23:50:44.572Z,98683.41
2018-11-23T23:55:46.276Z,98685.16
